createdAt,value
2023-03-01T00:01:32.977Z,83.71
2023-03-01T00:04:00.041Z,83.77
2023-03-01T00:06:27.346Z,83.94
2023-03-01T00:08:54.298Z,84.39
2023-03-01T00:11:26.801Z,83.17
2023-03-01T00:13:55.860Z,82.43
2023-03-01T00:16:28.281Z,82.29
2023-03-01T00:18:55.972Z,83.05
2023-03-01T00:21:23.538Z,83.62
2023-03-01T00:23:50.544Z,83.55
2023-03-01T00:26:18.185Z,83.69
2023-03-01T00:28:45.103Z,84.68
2023-03-01T00:31:15.743Z,84.68
2023-03-01T00:33:42.706Z,84.65
2023-03-01T00:36:10.825Z,85.06
2023-03-01T00:38:41.816Z,85.09
2023-03-01T00:41:11.107Z,85.65
2023-03-01T00:43:37.726Z,85.83
2023-03-01T00:46:10.125Z,85.17
2023-03-01T00:48:37.287Z,85.74
2023-03-01T00:51:12.249Z,86.26
2023-03-01T00:53:39.008Z,86.54
2023-03-01T00:56:07.230Z,86.61
2023-03-01T00:58:33.989Z,86.80
2023-03-01T01:01:00.798Z,86.91
2023-03-01T01:03:27.259Z,87.21
2023-03-01T01:05:53.867Z,86.78
2023-03-01T01:08:21.657Z,86.81
2023-03-01T01:10:48.397Z,87.13
2023-03-01T01:13:14.796Z,87.33
2023-03-01T01:15:41.918Z,87.49
2023-03-01T01:18:08.457Z,87.68
2023-03-01T01:20:36.624Z,88.25
2023-03-01T01:23:03.109Z,89.07
2023-03-01T01:25:29.456Z,89.46
2023-03-01T01:27:55.797Z,89.54
2023-03-01T01:30:22.102Z,90.08
2023-03-01T01:32:48.413Z,90.25
2023-03-01T01:35:14.791Z,90.35
2023-03-01T01:37:41.117Z,89.89
2023-03-01T01:40:07.929Z,89.70
2023-03-01T01:42:34.243Z,89.84
2023-03-01T01:45:33.348Z,89.37
2023-03-01T01:48:04.814Z,89.42
2023-03-01T01:50:34.433Z,89.00
2023-03-01T01:53:00.749Z,89.02
2023-03-01T01:55:28.442Z,89.11
2023-03-01T01:57:58.735Z,89.28
2023-03-01T02:00:27.944Z,89.55
2023-03-01T02:03:04.146Z,89.67
2023-03-01T02:06:04.514Z,89.64
2023-03-01T02:08:33.754Z,89.43
2023-03-01T02:11:01.560Z,89.10
2023-03-01T02:13:28.717Z,88.60
2023-03-01T02:15:55.280Z,89.00
2023-03-01T02:18:24.302Z,89.54
2023-03-01T02:21:09.311Z,90.34
2023-03-01T02:23:36.954Z,90.64
2023-03-01T02:26:21.905Z,90.84
2023-03-01T02:28:48.241Z,91.13
2023-03-01T02:31:18.061Z,91.25
2023-03-01T02:33:45.010Z,90.74
2023-03-01T02:36:27.567Z,90.76
2023-03-01T02:38:58.897Z,91.14
2023-03-01T02:41:27.213Z,91.66
2023-03-01T02:43:53.894Z,92.00
2023-03-01T02:46:26.047Z,92.49
2023-03-01T02:48:55.042Z,92.58
2023-03-01T02:52:16.675Z,92.65
2023-03-01T02:54:57.246Z,92.53
2023-03-01T02:57:25.678Z,92.11
2023-03-01T02:59:53.511Z,92.12
2023-03-01T03:02:25.146Z,92.29
2023-03-01T03:04:51.470Z,92.78
2023-03-01T03:07:17.760Z,93.32
2023-03-01T03:09:44.080Z,93.32
2023-03-01T03:12:10.365Z,93.10
2023-03-01T03:14:36.705Z,92.95
2023-03-01T03:17:03.044Z,93.18
2023-03-01T03:19:29.488Z,93.16
2023-03-01T03:21:55.814Z,92.93
2023-03-01T03:24:22.109Z,92.76
2023-03-01T03:26:48.431Z,92.91
2023-03-01T03:29:14.753Z,93.23
2023-03-01T03:31:41.124Z,93.57
2023-03-01T03:34:07.456Z,93.53
2023-03-01T03:36:33.756Z,93.23
2023-03-01T03:39:00.051Z,93.40
2023-03-01T03:41:26.455Z,93.48
2023-03-01T03:43:52.772Z,93.62
2023-03-01T03:46:19.083Z,93.33
2023-03-01T03:48:46.601Z,93.36
2023-03-01T03:51:15.432Z,93.71
2023-03-01T03:53:42.474Z,94.18
2023-03-01T03:56:09.041Z,94.29
2023-03-01T03:58:35.609Z,93.75
2023-03-01T04:01:02.178Z,93.56
2023-03-01T04:03:29.757Z,93.40
2023-03-01T04:05:58.807Z,93.60
2023-03-01T04:08:25.823Z,93.90
2023-03-01T04:10:53.939Z,94.18
2023-03-01T04:13:23.104Z,94.10
2023-03-01T04:15:54.032Z,94.04
2023-03-01T04:18:22.204Z,94.15
2023-03-01T04:20:48.613Z,93.66
2023-03-01T04:23:19.406Z,93.25
2023-03-01T04:25:56.463Z,93.12
2023-03-01T04:28:25.093Z,93.51
2023-03-01T04:30:52.558Z,93.41
2023-03-01T04:33:19.203Z,92.92
2023-03-01T04:38:17.089Z,92.93
2023-03-01T04:40:43.401Z,92.97
2023-03-01T04:43:11.007Z,92.79
2023-03-01T04:45:37.785Z,93.01
2023-03-01T04:48:04.730Z,93.05
2023-03-01T04:50:31.606Z,93.22
2023-03-01T04:52:57.906Z,93.00
2023-03-01T04:55:24.216Z,92.65
2023-03-01T04:57:50.534Z,92.60
2023-03-01T05:00:17.043Z,92.64
2023-03-01T05:02:43.515Z,92.98
2023-03-01T05:05:09.820Z,93.19
2023-03-01T05:07:36.130Z,93.56
2023-03-01T05:10:02.427Z,93.77
2023-03-01T05:12:28.730Z,94.43
2023-03-01T05:14:55.046Z,94.98
2023-03-01T05:17:21.385Z,94.89
2023-03-01T05:19:47.714Z,94.86
2023-03-01T05:22:14.034Z,94.88
2023-03-01T05:24:40.334Z,94.67
2023-03-01T05:27:06.701Z,94.59
2023-03-01T05:29:33.140Z,94.44
2023-03-01T05:32:01.263Z,94.19
2023-03-01T05:34:36.272Z,94.03
2023-03-01T05:37:03.328Z,94.17
2023-03-01T05:39:30.677Z,93.88
2023-03-01T05:41:59.408Z,93.61
2023-03-01T05:44:26.792Z,93.59
2023-03-01T05:46:53.415Z,93.50
2023-03-01T05:49:19.742Z,93.73
2023-03-01T05:51:51.360Z,93.34
2023-03-01T05:54:18.553Z,92.21
2023-03-01T05:56:45.516Z,91.87
2023-03-01T05:59:12.472Z,92.54
2023-03-01T06:01:38.950Z,92.91
2023-03-01T06:04:05.331Z,92.54
2023-03-01T06:06:36.523Z,92.73
2023-03-01T06:09:02.923Z,93.05
2023-03-01T06:11:29.387Z,92.98
2023-03-01T06:13:55.829Z,92.73
2023-03-01T06:16:22.321Z,92.36
2023-03-01T06:18:48.617Z,92.76
2023-03-01T06:21:14.937Z,92.41
2023-03-01T06:23:41.304Z,92.55
2023-03-01T06:26:09.178Z,92.43
2023-03-01T06:28:36.606Z,92.07
2023-03-01T06:31:03.051Z,92.07
2023-03-01T06:33:29.463Z,92.41
2023-03-01T06:35:56.519Z,92.53
2023-03-01T06:38:23.835Z,92.35
2023-03-01T06:40:55.193Z,92.28
2023-03-01T06:43:22.164Z,92.14
2023-03-01T06:45:48.524Z,92.61
2023-03-01T06:48:14.834Z,92.29
2023-03-01T06:50:41.249Z,92.14
2023-03-01T06:53:07.649Z,92.41
2023-03-01T06:55:34.105Z,92.62
2023-03-01T06:58:02.302Z,92.55
2023-03-01T07:00:29.454Z,92.33
2023-03-01T07:02:56.277Z,91.95
2023-03-01T07:05:22.730Z,91.55
2023-03-01T07:07:49.029Z,91.02
2023-03-01T07:10:15.383Z,90.63
2023-03-01T07:12:41.765Z,89.88
2023-03-01T07:15:10.780Z,89.51
2023-03-01T07:17:37.246Z,88.92
2023-03-01T07:20:04.135Z,89.41
2023-03-01T07:22:30.467Z,89.30
2023-03-01T07:24:56.778Z,88.54
2023-03-01T07:27:23.079Z,88.22
2023-03-01T07:29:49.391Z,88.14
2023-03-01T07:32:15.768Z,88.02
2023-03-01T07:34:42.139Z,87.30
2023-03-01T07:37:08.469Z,86.86
2023-03-01T07:39:34.789Z,86.97
2023-03-01T07:42:01.099Z,86.96
2023-03-01T07:44:27.475Z,87.54
2023-03-01T07:46:53.872Z,88.08
2023-03-01T07:49:20.277Z,88.35
2023-03-01T07:51:46.615Z,88.32
2023-03-01T07:54:12.978Z,88.01
2023-03-01T07:56:39.298Z,87.88
2023-03-01T07:59:05.614Z,87.37
2023-03-01T08:01:31.942Z,86.34
2023-03-01T08:03:58.315Z,85.37
2023-03-01T08:06:24.655Z,84.46
2023-03-01T08:08:51.032Z,84.68
2023-03-01T08:11:17.653Z,84.80
2023-03-01T08:13:44.380Z,84.79
2023-03-01T08:16:13.629Z,84.59
2023-03-01T08:18:40.237Z,84.16
2023-03-01T08:21:12.544Z,84.21
2023-03-01T08:23:39.144Z,83.66
2023-03-01T08:26:06.544Z,84.10
2023-03-01T08:28:33.176Z,83.38
2023-03-01T08:30:59.481Z,82.87
2023-03-01T08:33:25.930Z,81.93
2023-03-01T08:35:52.319Z,79.26
2023-03-01T08:38:18.651Z,76.57
2023-03-01T08:40:44.984Z,76.18
2023-03-01T08:43:11.309Z,76.43
2023-03-01T08:45:37.642Z,76.01
2023-03-01T08:48:04.070Z,74.03
2023-03-01T08:50:30.355Z,72.50
2023-03-01T08:52:56.665Z,71.54
2023-03-01T08:55:22.988Z,71.67
2023-03-01T08:57:49.397Z,71.79
2023-03-01T09:00:16.006Z,71.53
2023-03-01T09:02:42.357Z,70.62
2023-03-01T09:05:09.182Z,69.99
2023-03-01T09:07:35.487Z,69.91
2023-03-01T09:10:01.858Z,69.18
2023-03-01T09:12:28.221Z,70.09
2023-03-01T09:14:54.520Z,69.92
2023-03-01T09:17:20.839Z,69.44
2023-03-01T09:19:47.145Z,67.52
2023-03-01T09:22:13.452Z,66.50
2023-03-01T09:24:39.766Z,67.14
2023-03-01T09:27:06.062Z,63.92
2023-03-01T09:29:32.364Z,62.35
2023-03-01T09:31:59.789Z,62.16
2023-03-01T09:34:26.156Z,60.77
2023-03-01T09:36:52.562Z,58.42
2023-03-01T09:39:19.710Z,57.43
2023-03-01T09:41:55.043Z,58.70
2023-03-01T09:44:51.828Z,56.30
2023-03-01T09:47:21.446Z,56.53
2023-03-01T09:50:13.468Z,55.65
2023-03-01T09:52:44.212Z,54.94
2023-03-01T09:55:38.197Z,54.75
2023-03-01T09:58:37.594Z,54.44
2023-03-01T10:01:19.626Z,55.10
2023-03-01T10:04:02.077Z,54.28
2023-03-01T10:06:34.812Z,53.80
2023-03-01T10:09:13.656Z,54.23
2023-03-01T10:11:46.192Z,54.09
2023-03-01T10:14:31.345Z,53.72
2023-03-01T10:17:03.734Z,53.17
2023-03-01T10:19:39.835Z,54.47
2023-03-01T10:22:16.077Z,53.17
2023-03-01T10:24:43.520Z,53.31
2023-03-01T10:27:21.719Z,54.60
2023-03-01T10:30:14.402Z,54.05
2023-03-01T10:32:40.942Z,53.66
2023-03-01T10:35:28.015Z,53.45
2023-03-01T10:38:02.905Z,52.36
2023-03-01T10:40:29.127Z,53.42
2023-03-01T10:42:59.250Z,54.04
2023-03-01T10:45:34.456Z,53.72
2023-03-01T10:48:19.009Z,53.78
2023-03-01T10:50:47.620Z,53.94
2023-03-01T10:53:32.932Z,53.42
2023-03-01T10:56:03.394Z,53.51
2023-03-01T10:58:30.421Z,53.12
2023-03-01T11:01:16.843Z,52.83
2023-03-01T11:03:43.418Z,53.26
2023-03-01T11:06:12.470Z,52.60
2023-03-01T11:08:41.071Z,52.86
2023-03-01T11:11:10.079Z,52.29
2023-03-01T11:13:39.334Z,52.62
2023-03-01T11:16:13.305Z,52.03
2023-03-01T11:18:47.427Z,53.05
2023-03-01T11:21:16.371Z,51.84
2023-03-01T11:23:45.967Z,52.85
2023-03-01T11:26:14.523Z,52.01
2023-03-01T11:28:43.620Z,51.22
2023-03-01T11:31:11.928Z,51.77
2023-03-01T11:33:50.139Z,50.60
2023-03-01T11:36:16.451Z,50.47
2023-03-01T11:38:44.143Z,50.37
2023-03-01T11:41:29.270Z,50.18
2023-03-01T11:44:00.427Z,50.85
2023-03-01T11:46:32.738Z,51.07
2023-03-01T11:49:36.409Z,48.56
2023-03-01T11:52:21.316Z,48.73
2023-03-01T11:55:06.403Z,51.16
2023-03-01T11:57:54.759Z,48.85
2023-03-01T12:00:58.823Z,48.80
2023-03-01T12:03:40.087Z,48.53
2023-03-01T12:06:24.853Z,48.99
2023-03-01T12:08:58.028Z,48.36
2023-03-01T12:11:48.546Z,48.33
2023-03-01T12:14:33.551Z,50.04
2023-03-01T12:17:24.733Z,49.92
2023-03-01T12:20:14.390Z,49.00
2023-03-01T12:22:49.473Z,46.39
2023-03-01T12:25:40.430Z,51.23
2023-03-01T12:28:28.890Z,50.88
2023-03-01T12:31:13.548Z,51.27
2023-03-01T12:34:04.257Z,51.09
2023-03-01T12:36:59.911Z,48.07
2023-03-01T12:39:43.133Z,50.94
2023-03-01T12:42:49.628Z,51.09
2023-03-01T12:45:36.010Z,50.59
2023-03-01T12:48:20.974Z,51.27
2023-03-01T12:50:52.073Z,50.94
2023-03-01T12:53:27.284Z,51.26
2023-03-01T12:55:59.166Z,51.63
2023-03-01T12:58:50.107Z,51.56
2023-03-01T13:01:40.271Z,51.38
2023-03-01T13:04:26.065Z,51.47
2023-03-01T13:07:26.180Z,52.26
2023-03-01T13:10:18.387Z,51.58
2023-03-01T13:12:50.588Z,51.81
2023-03-01T13:15:22.798Z,51.75
2023-03-01T13:17:57.824Z,50.66
2023-03-01T13:20:31.508Z,50.89
2023-03-01T13:23:07.891Z,50.23
2023-03-01T13:25:42.000Z,51.08
2023-03-01T13:28:36.791Z,50.16
2023-03-01T13:31:06.028Z,50.16
2023-03-01T13:33:32.278Z,49.26
2023-03-01T13:35:59.498Z,48.62
2023-03-01T13:38:56.947Z,49.28
2023-03-01T13:41:44.773Z,48.97
2023-03-01T13:44:33.151Z,47.85
2023-03-01T13:47:08.647Z,48.15
2023-03-01T13:49:48.531Z,48.92
2023-03-01T13:52:29.850Z,47.78
2023-03-01T13:54:57.709Z,47.51
2023-03-01T13:57:29.925Z,46.89
2023-03-01T13:59:56.275Z,45.93
2023-03-01T14:02:22.657Z,47.31
2023-03-01T14:05:02.104Z,47.89
2023-03-01T14:07:29.032Z,48.95
2023-03-01T14:10:02.110Z,48.49
2023-03-01T14:12:53.378Z,49.46
2023-03-01T14:15:28.297Z,49.46
2023-03-01T14:18:06.707Z,49.57
2023-03-01T14:20:39.398Z,50.20
2023-03-01T14:23:13.453Z,49.92
2023-03-01T14:25:50.915Z,49.86
2023-03-01T14:28:21.351Z,49.57
2023-03-01T14:30:52.930Z,49.12
2023-03-01T14:33:28.146Z,49.47
2023-03-01T14:36:00.710Z,49.01
2023-03-01T14:38:39.352Z,48.13
2023-03-01T14:41:12.067Z,49.04
2023-03-01T14:43:42.251Z,48.68
2023-03-01T14:46:20.035Z,49.04
2023-03-01T14:48:49.003Z,49.26
2023-03-01T14:51:15.375Z,48.27
2023-03-01T14:53:50.943Z,48.03
2023-03-01T14:56:18.598Z,48.16
2023-03-01T14:58:45.410Z,47.75
2023-03-01T15:01:15.754Z,48.30
2023-03-01T15:03:49.952Z,47.94
2023-03-01T15:06:22.555Z,47.83
2023-03-01T15:08:52.513Z,48.18
2023-03-01T15:11:31.434Z,48.18
2023-03-01T15:13:57.851Z,48.54
2023-03-01T15:16:27.872Z,48.45
2023-03-01T15:19:18.214Z,47.76
2023-03-01T15:21:49.461Z,48.01
2023-03-01T15:24:23.685Z,47.74
2023-03-01T15:26:54.670Z,47.09
2023-03-01T15:29:23.571Z,46.88
2023-03-01T15:32:01.705Z,47.48
2023-03-01T15:34:33.307Z,47.43
2023-03-01T15:37:01.750Z,47.94
2023-03-01T15:39:40.211Z,47.91
2023-03-01T15:42:09.899Z,48.06
2023-03-01T15:44:43.832Z,47.67
2023-03-01T15:47:31.391Z,48.25
2023-03-01T15:49:59.601Z,47.94
2023-03-01T15:52:30.528Z,47.63
2023-03-01T15:55:02.586Z,48.01
2023-03-01T15:57:29.047Z,47.55
2023-03-01T15:59:55.720Z,47.62
2023-03-01T16:02:24.212Z,47.09
2023-03-01T16:04:51.275Z,47.48
2023-03-01T16:07:18.165Z,48.04
2023-03-01T16:09:44.498Z,47.85
2023-03-01T16:12:16.038Z,47.41
2023-03-01T16:14:42.756Z,47.56
2023-03-01T16:17:09.085Z,47.82
2023-03-01T16:19:35.446Z,48.33
2023-03-01T16:22:01.740Z,48.80
2023-03-01T16:24:28.067Z,49.10
2023-03-01T16:26:54.368Z,49.24
2023-03-01T16:29:20.695Z,49.52
2023-03-01T16:31:47.039Z,49.71
2023-03-01T16:34:13.393Z,50.17
2023-03-01T16:36:39.727Z,49.76
2023-03-01T16:39:06.208Z,50.05
2023-03-01T16:41:32.836Z,50.57
2023-03-01T16:43:59.363Z,50.58
2023-03-01T16:46:28.249Z,50.69
2023-03-01T16:48:54.968Z,50.77
2023-03-01T16:51:22.388Z,51.04
2023-03-01T16:53:49.516Z,51.47
2023-03-01T16:56:16.376Z,51.48
2023-03-01T16:58:43.383Z,52.06
2023-03-01T17:01:16.053Z,52.62
2023-03-01T17:03:43.869Z,52.31
2023-03-01T17:06:13.383Z,52.73
2023-03-01T17:08:40.123Z,52.93
2023-03-01T17:11:09.636Z,53.26
2023-03-01T17:13:37.839Z,53.36
2023-03-01T17:16:09.805Z,53.78
2023-03-01T17:18:36.629Z,53.68
2023-03-01T17:21:03.490Z,54.07
2023-03-01T17:23:30.858Z,53.98
2023-03-01T17:25:57.570Z,54.28
2023-03-01T17:28:25.981Z,55.12
2023-03-01T17:30:52.561Z,55.71
2023-03-01T17:33:19.832Z,55.93
2023-03-01T17:35:46.543Z,56.36
2023-03-01T17:38:14.804Z,55.83
2023-03-01T17:40:42.277Z,56.40
2023-03-01T17:43:09.807Z,56.50
2023-03-01T17:45:39.891Z,57.00
2023-03-01T17:48:07.406Z,56.47
2023-03-01T17:50:38.746Z,56.69
2023-03-01T17:53:05.096Z,56.88
2023-03-01T17:55:31.410Z,57.10
2023-03-01T17:57:57.738Z,57.09
2023-03-01T18:00:24.480Z,57.07
2023-03-01T18:02:50.829Z,57.39
2023-03-01T18:05:17.210Z,56.70
2023-03-01T18:07:43.517Z,56.78
2023-03-01T18:10:10.461Z,57.08
2023-03-01T18:12:37.107Z,57.17
2023-03-01T18:15:05.171Z,57.43
2023-03-01T18:17:31.497Z,57.11
2023-03-01T18:19:57.908Z,57.50
2023-03-01T18:22:25.008Z,57.27
2023-03-01T18:24:51.516Z,57.00
2023-03-01T18:27:18.175Z,57.02
2023-03-01T18:29:44.485Z,57.64
2023-03-01T18:32:11.132Z,57.86
2023-03-01T18:34:37.493Z,57.53
2023-03-01T18:37:09.617Z,58.29
2023-03-01T18:39:36.911Z,58.66
2023-03-01T18:42:03.424Z,58.90
2023-03-01T18:44:29.728Z,59.47
2023-03-01T18:46:56.074Z,59.25
2023-03-01T18:49:22.376Z,59.33
2023-03-01T18:51:48.788Z,59.18
2023-03-01T18:54:15.208Z,58.97
2023-03-01T18:56:41.664Z,58.48
2023-03-01T18:59:08.084Z,58.68
2023-03-01T19:01:37.028Z,58.11
2023-03-01T19:04:03.979Z,57.53
2023-03-01T19:06:33.020Z,57.53
2023-03-01T19:09:00.080Z,56.98
2023-03-01T19:11:27.377Z,56.73
2023-03-01T19:13:54.291Z,56.95
2023-03-01T19:16:23.214Z,56.72
2023-03-01T19:18:49.753Z,56.77
2023-03-01T19:21:21.476Z,56.55
2023-03-01T19:23:48.702Z,56.30
2023-03-01T19:26:17.544Z,56.17
2023-03-01T19:28:44.070Z,55.72
2023-03-01T19:31:13.754Z,55.87
2023-03-01T19:33:40.592Z,55.55
2023-03-01T19:36:08.967Z,55.69
2023-03-01T19:38:35.457Z,55.63
2023-03-01T19:41:14.069Z,54.93
2023-03-01T19:43:41.166Z,55.18
2023-03-01T19:46:08.055Z,55.12
2023-03-01T19:48:34.811Z,55.09
2023-03-01T19:51:01.326Z,55.64
2023-03-01T19:53:27.645Z,55.88
2023-03-01T19:55:58.819Z,56.37
2023-03-01T19:58:26.259Z,56.21
2023-03-01T20:00:52.650Z,57.03
2023-03-01T20:03:18.996Z,56.85
2023-03-01T20:05:45.530Z,57.12
2023-03-01T20:08:11.836Z,57.32
2023-03-01T20:10:38.287Z,57.18
2023-03-01T20:13:04.721Z,58.15
2023-03-01T20:15:31.182Z,58.64
2023-03-01T20:17:57.562Z,59.50
2023-03-01T20:20:23.893Z,60.47
2023-03-01T20:22:51.387Z,60.84
2023-03-01T20:25:18.265Z,60.68
2023-03-01T20:27:44.636Z,61.00
2023-03-01T20:30:11.823Z,62.10
2023-03-01T20:32:38.202Z,62.07
2023-03-01T20:35:04.888Z,61.17
2023-03-01T20:37:31.286Z,61.57
2023-03-01T20:39:57.644Z,61.44
2023-03-01T20:42:23.931Z,61.58
2023-03-01T20:44:50.407Z,62.16
2023-03-01T20:47:16.812Z,61.39
2023-03-01T20:49:43.120Z,61.39
2023-03-01T20:52:09.421Z,61.11
2023-03-01T20:54:35.852Z,61.28
2023-03-01T20:57:02.280Z,61.39
2023-03-01T20:59:28.568Z,61.57
2023-03-01T21:01:54.926Z,61.80
2023-03-01T21:04:21.410Z,61.63
2023-03-01T21:06:47.746Z,61.97
2023-03-01T21:09:14.086Z,62.20
2023-03-01T21:11:40.431Z,62.84
2023-03-01T21:14:08.879Z,63.28
2023-03-01T21:16:35.824Z,63.70
2023-03-01T21:19:02.467Z,63.91
2023-03-01T21:21:28.805Z,64.62
2023-03-01T21:23:55.777Z,63.98
2023-03-01T21:26:26.689Z,63.79
2023-03-01T21:28:59.251Z,63.62
2023-03-01T21:31:28.219Z,63.95
2023-03-01T21:33:56.940Z,64.03
2023-03-01T21:36:24.726Z,63.90
2023-03-01T21:38:52.300Z,64.10
2023-03-01T21:41:22.222Z,63.99
2023-03-01T21:43:50.673Z,63.39
2023-03-01T21:46:20.055Z,63.65
2023-03-01T21:48:47.789Z,63.52
2023-03-01T21:51:16.514Z,63.60
2023-03-01T21:53:43.165Z,63.61
2023-03-01T21:56:14.576Z,63.58
2023-03-01T21:58:40.897Z,63.64
2023-03-01T22:01:10.264Z,63.81
2023-03-01T22:03:36.875Z,63.52
2023-03-01T22:06:03.300Z,63.71
2023-03-01T22:08:29.620Z,64.06
2023-03-01T22:10:55.939Z,64.36
2023-03-01T22:13:22.277Z,64.19
2023-03-01T22:15:48.617Z,64.00
2023-03-01T22:18:14.965Z,63.76
2023-03-01T22:20:41.537Z,64.04
2023-03-01T22:23:08.041Z,64.32
2023-03-01T22:25:41.220Z,64.11
2023-03-01T22:28:07.577Z,64.40
2023-03-01T22:30:33.893Z,63.97
2023-03-01T22:33:00.217Z,64.65
2023-03-01T22:35:26.624Z,65.48
2023-03-01T22:37:52.984Z,66.39
2023-03-01T22:40:19.398Z,66.56
2023-03-01T22:42:45.710Z,67.34
2023-03-01T22:45:12.403Z,67.40
2023-03-01T22:47:38.703Z,67.73
2023-03-01T22:50:06.972Z,67.41
2023-03-01T22:52:33.333Z,67.90
2023-03-01T22:54:59.817Z,68.53
2023-03-01T22:57:26.108Z,68.95
2023-03-01T22:59:52.505Z,69.62
2023-03-01T23:02:18.900Z,70.39
2023-03-01T23:04:45.301Z,70.81
2023-03-01T23:07:11.604Z,70.24
2023-03-01T23:09:37.888Z,69.60
2023-03-01T23:12:04.598Z,69.45
2023-03-01T23:14:31.618Z,69.06
2023-03-01T23:16:58.021Z,67.73
2023-03-01T23:19:24.358Z,67.44
2023-03-01T23:21:50.748Z,67.76
2023-03-01T23:24:19.351Z,67.63
2023-03-01T23:26:45.819Z,68.17
2023-03-01T23:29:12.436Z,68.90
2023-03-01T23:31:38.749Z,69.88
2023-03-01T23:34:05.074Z,70.64
2023-03-01T23:36:34.395Z,70.46
2023-03-01T23:39:06.057Z,71.36
2023-03-01T23:41:34.254Z,71.25
2023-03-01T23:44:02.422Z,71.23
2023-03-01T23:46:32.070Z,71.98
2023-03-01T23:48:59.169Z,70.99
2023-03-01T23:51:25.632Z,69.41
2023-03-01T23:53:57.574Z,69.30
2023-03-01T23:56:30.415Z,68.75
2023-03-01T23:58:59.497Z,68.49
